createdAt,value
2023-07-30T00:01:28.509Z,99514.03
2023-07-30T00:03:00.946Z,99506.16
2023-07-30T00:04:33.160Z,99508.84
2023-07-30T00:06:05.373Z,99514.28
2023-07-30T00:07:37.585Z,99515.13
2023-07-30T00:09:09.726Z,99512.41
2023-07-30T00:10:41.886Z,99517.66
2023-07-30T00:12:14.039Z,99515.19
2023-07-30T00:13:46.185Z,99511.81
2023-07-30T00:15:18.430Z,99513.59
2023-07-30T00:16:50.694Z,99511.75
2023-07-30T00:18:22.975Z,99517.81
2023-07-30T00:19:55.415Z,99507.41
2023-07-30T00:21:27.656Z,99509.19
2023-07-30T00:22:59.868Z,99507.94
2023-07-30T00:24:32.404Z,99508.09
2023-07-30T00:26:04.759Z,99510.84
2023-07-30T00:27:36.999Z,99509.06
2023-07-30T00:29:09.205Z,99511.91
2023-07-30T00:30:41.562Z,99509.28
2023-07-30T00:32:17.412Z,99508.53
2023-07-30T00:33:49.599Z,99500.75
2023-07-30T00:35:22.037Z,99494.72
2023-07-30T00:36:54.219Z,99505.22
2023-07-30T00:38:26.635Z,99496.59
2023-07-30T00:39:58.949Z,99496.78
2023-07-30T00:41:31.124Z,99493.41
2023-07-30T00:43:03.295Z,99498.47
2023-07-30T00:44:35.678Z,99499.56
2023-07-30T00:46:07.955Z,99498.81
2023-07-30T00:47:40.293Z,99496.38
2023-07-30T00:49:12.498Z,99491.13
2023-07-30T00:50:44.776Z,99489.06
2023-07-30T00:52:20.862Z,99492.19
2023-07-30T00:53:53.036Z,99488.91
2023-07-30T00:55:25.164Z,99489.66
2023-07-30T00:56:57.526Z,99493.03
2023-07-30T00:58:29.723Z,99496.59
2023-07-30T01:00:05.992Z,99497.44
2023-07-30T01:01:40.998Z,99499.97
2023-07-30T01:04:47.184Z,99501.06
2023-07-30T01:06:22.169Z,99503.97
2023-07-30T01:07:54.290Z,99489.69
2023-07-30T01:09:26.927Z,99493.13
2023-07-30T01:10:59.535Z,99494.66
2023-07-30T01:12:33.248Z,99499.06
2023-07-30T01:14:06.908Z,99494.66
2023-07-30T01:15:39.753Z,99498.13
2023-07-30T01:17:13.331Z,99495.59
2023-07-30T01:18:45.485Z,99496.69
2023-07-30T01:20:17.637Z,99502.00
2023-07-30T01:21:49.773Z,99503.13
2023-07-30T01:23:21.916Z,99498.91
2023-07-30T01:24:54.328Z,99500.56
2023-07-30T01:26:29.452Z,99491.63
2023-07-30T01:28:03.885Z,99497.94
2023-07-30T01:29:57.003Z,99500.56
2023-07-30T01:31:32.113Z,99501.41
2023-07-30T01:33:05.445Z,99504.97
2023-07-30T01:34:37.567Z,99499.56
2023-07-30T01:36:10.918Z,99504.97
2023-07-30T01:37:42.858Z,99502.16
2023-07-30T01:39:15.650Z,99503.44
2023-07-30T01:40:47.834Z,99504.47
2023-07-30T01:42:20.055Z,99503.72
2023-07-30T01:43:52.183Z,99505.63
2023-07-30T01:45:24.366Z,99509.28
2023-07-30T01:46:56.495Z,99519.81
2023-07-30T01:48:28.676Z,99506.03
2023-07-30T01:50:01.233Z,99509.53
2023-07-30T01:51:33.444Z,99506.16
2023-07-30T01:53:05.776Z,99508.84
2023-07-30T01:54:38.002Z,99502.75
2023-07-30T01:56:10.082Z,99504.63
2023-07-30T01:57:42.208Z,99500.38
2023-07-30T01:59:14.322Z,99501.63
2023-07-30T02:00:46.898Z,99499.03
2023-07-30T02:02:19.308Z,99490.53
2023-07-30T02:03:51.560Z,99498.50
2023-07-30T02:05:23.824Z,99502.03
2023-07-30T02:06:55.996Z,99496.03
2023-07-30T02:08:28.743Z,99487.53
2023-07-30T02:10:01.726Z,99487.59
2023-07-30T02:11:33.827Z,99499.84
2023-07-30T02:13:06.107Z,99492.81
2023-07-30T02:14:38.346Z,99495.28
2023-07-30T02:16:10.549Z,99500.34
2023-07-30T02:17:42.790Z,99494.28
2023-07-30T02:19:15.036Z,99502.22
2023-07-30T02:20:47.244Z,99501.28
2023-07-30T02:22:19.404Z,99503.06
2023-07-30T02:23:51.535Z,99500.44
2023-07-30T02:25:23.698Z,99508.47
2023-07-30T02:26:55.926Z,99503.22
2023-07-30T02:28:28.235Z,99506.75
2023-07-30T02:30:00.388Z,99503.31
2023-07-30T02:31:32.768Z,99506.75
2023-07-30T02:33:05.092Z,99510.38
2023-07-30T02:34:37.244Z,99515.69
2023-07-30T02:36:09.350Z,99504.47
2023-07-30T02:37:41.486Z,99515.88
2023-07-30T02:39:13.638Z,99506.25
2023-07-30T02:40:45.734Z,99521.88
2023-07-30T02:42:17.827Z,99517.53
2023-07-30T02:43:49.950Z,99519.41
2023-07-30T02:45:22.135Z,99517.63
2023-07-30T02:46:54.203Z,99525.25
2023-07-30T02:48:26.301Z,99522.47
2023-07-30T02:49:58.382Z,99521.63
2023-07-30T02:51:30.480Z,99531.25
2023-07-30T02:53:02.531Z,99529.63
2023-07-30T02:54:34.666Z,99525.16
2023-07-30T02:56:06.828Z,99529.41
2023-07-30T02:57:38.987Z,99528.63
2023-07-30T02:59:11.052Z,99527.88
2023-07-30T03:00:43.274Z,99531.56
2023-07-30T03:02:15.489Z,99528.41
2023-07-30T03:03:47.728Z,99526.66
2023-07-30T03:05:19.846Z,99522.34
2023-07-30T03:06:52.176Z,99516.53
2023-07-30T03:08:24.372Z,99520.00
2023-07-30T03:09:56.545Z,99523.56
2023-07-30T03:11:28.695Z,99532.19
2023-07-30T03:13:00.898Z,99528.66
2023-07-30T03:14:33.113Z,99521.56
2023-07-30T03:16:06.053Z,99531.03
2023-07-30T03:17:38.182Z,99521.56
2023-07-30T03:19:10.325Z,99528.59
2023-07-30T03:20:42.625Z,99527.63
2023-07-30T03:22:14.862Z,99530.47
2023-07-30T03:23:47.102Z,99526.06
2023-07-30T03:25:19.380Z,99526.06
2023-07-30T03:26:51.601Z,99523.44
2023-07-30T03:28:23.929Z,99525.41
2023-07-30T03:29:56.220Z,99522.84
2023-07-30T03:31:30.008Z,99526.41
2023-07-30T03:33:02.300Z,99524.63
2023-07-30T03:34:34.647Z,99531.47
2023-07-30T03:36:06.984Z,99527.91
2023-07-30T03:37:39.358Z,99526.19
2023-07-30T03:39:12.236Z,99536.66
2023-07-30T03:40:44.718Z,99526.19
2023-07-30T03:42:17.772Z,99531.28
2023-07-30T03:43:50.001Z,99532.25
2023-07-30T03:45:22.293Z,99532.25
2023-07-30T03:46:54.374Z,99533.91
2023-07-30T03:48:26.608Z,99528.69
2023-07-30T03:49:58.760Z,99530.34
2023-07-30T03:51:30.983Z,99531.13
2023-07-30T03:53:03.226Z,99530.34
2023-07-30T03:54:35.654Z,99533.81
2023-07-30T03:56:08.008Z,99545.06
2023-07-30T03:57:40.330Z,99525.56
2023-07-30T03:59:12.570Z,99529.72
2023-07-30T04:00:44.786Z,99529.47
2023-07-30T04:02:17.423Z,99528.41
2023-07-30T04:03:49.745Z,99526.47
2023-07-30T04:05:22.122Z,99535.75
2023-07-30T04:06:54.308Z,99529.34
2023-07-30T04:08:26.508Z,99531.91
2023-07-30T04:09:58.727Z,99533.44
2023-07-30T04:11:30.980Z,99533.19
2023-07-30T04:13:03.500Z,99537.25
2023-07-30T04:14:35.637Z,99537.91
2023-07-30T04:16:07.920Z,99540.28
2023-07-30T04:17:40.511Z,99540.88
2023-07-30T04:19:12.721Z,99542.34
2023-07-30T04:20:44.936Z,99538.44
2023-07-30T04:22:20.155Z,99537.09
2023-07-30T04:23:52.516Z,99546.41
2023-07-30T04:25:40.079Z,99537.13
2023-07-30T04:38:01.075Z,99538.97
2023-07-30T04:39:36.506Z,99519.38
2023-07-30T04:41:08.965Z,99544.28
2023-07-30T04:42:41.271Z,99538.53
2023-07-30T04:44:13.527Z,99539.97
2023-07-30T04:45:45.867Z,99543.84
2023-07-30T04:47:18.115Z,99544.25
2023-07-30T04:48:50.267Z,99548.28
2023-07-30T04:50:22.581Z,99544.06
2023-07-30T04:51:54.798Z,99547.94
2023-07-30T04:53:27.460Z,99542.03
2023-07-30T04:54:59.670Z,99543.91
2023-07-30T04:56:31.918Z,99551.00
2023-07-30T04:58:05.021Z,99550.50
2023-07-30T04:59:37.366Z,99547.31
2023-07-30T05:01:09.591Z,99552.22
2023-07-30T05:02:41.813Z,99553.81
2023-07-30T05:04:14.208Z,99542.16
2023-07-30T05:05:46.424Z,99542.50
2023-07-30T05:07:18.704Z,99538.53
2023-07-30T05:08:54.048Z,99535.09
2023-07-30T05:10:26.267Z,99533.22
2023-07-30T05:11:58.544Z,99536.09
2023-07-30T05:13:30.794Z,99533.72
2023-07-30T05:15:03.088Z,99532.44
2023-07-30T05:16:35.366Z,99536.16
2023-07-30T05:18:07.765Z,99534.91
2023-07-30T05:19:40.033Z,99537.69
2023-07-30T05:21:12.315Z,99538.03
2023-07-30T05:22:44.539Z,99534.78
2023-07-30T05:24:16.808Z,99542.13
2023-07-30T05:25:48.997Z,99535.28
2023-07-30T05:27:21.950Z,99543.41
2023-07-30T05:28:54.215Z,99547.19
2023-07-30T05:30:26.402Z,99550.16
2023-07-30T05:31:58.624Z,99549.72
2023-07-30T05:33:30.896Z,99558.78
2023-07-30T05:35:03.525Z,99550.25
2023-07-30T05:36:35.689Z,99549.69
2023-07-30T05:38:07.942Z,99550.72
2023-07-30T05:39:40.282Z,99550.91
2023-07-30T05:41:12.512Z,99545.84
2023-07-30T05:42:44.739Z,99547.78
2023-07-30T05:44:17.241Z,99549.88
2023-07-30T05:45:49.602Z,99553.84
2023-07-30T05:47:21.831Z,99552.34
2023-07-30T05:48:54.042Z,99555.16
2023-07-30T05:50:26.247Z,99548.59
2023-07-30T05:51:58.526Z,99558.25
2023-07-30T05:53:30.742Z,99554.06
2023-07-30T05:55:02.931Z,99554.34
2023-07-30T05:56:35.154Z,99556.41
2023-07-30T05:58:07.462Z,99556.88
2023-07-30T05:59:39.670Z,99551.97
2023-07-30T06:01:13.112Z,99552.38
2023-07-30T06:04:19.178Z,99557.44
2023-07-30T06:05:51.503Z,99559.75
2023-07-30T06:07:23.652Z,99553.13
2023-07-30T06:08:56.346Z,99552.66
2023-07-30T06:10:28.639Z,99561.91
2023-07-30T06:12:01.150Z,99547.13
2023-07-30T06:13:33.458Z,99551.81
2023-07-30T06:15:08.020Z,99550.13
2023-07-30T06:16:40.274Z,99552.16
2023-07-30T06:18:12.601Z,99548.06
2023-07-30T06:19:44.848Z,99544.09
2023-07-30T06:21:17.141Z,99543.63
2023-07-30T06:22:49.328Z,99554.66
2023-07-30T06:24:22.075Z,99544.69
2023-07-30T06:25:54.319Z,99545.13
2023-07-30T06:27:26.588Z,99547.88
2023-07-30T06:28:59.036Z,99546.19
2023-07-30T06:30:31.270Z,99543.63
2023-07-30T06:32:03.660Z,99541.88
2023-07-30T06:33:35.949Z,99535.34
2023-07-30T06:35:08.788Z,99540.00
2023-07-30T06:36:41.158Z,99534.31
2023-07-30T06:38:13.499Z,99534.00
2023-07-30T06:39:45.649Z,99533.34
2023-07-30T06:41:17.953Z,99535.22
2023-07-30T06:42:50.213Z,99532.75
2023-07-30T06:44:22.437Z,99530.28
2023-07-30T06:45:56.467Z,99525.03
2023-07-30T06:47:28.841Z,99525.22
2023-07-30T06:49:01.149Z,99526.22
2023-07-30T06:50:33.597Z,99521.00
2023-07-30T06:52:06.272Z,99521.75
2023-07-30T06:53:38.506Z,99521.75
2023-07-30T06:55:10.851Z,99522.78
2023-07-30T06:56:43.080Z,99514.97
2023-07-30T06:58:15.675Z,99515.28
2023-07-30T06:59:47.892Z,99509.25
2023-07-30T07:01:20.408Z,99514.72
2023-07-30T07:02:53.070Z,99512.94
2023-07-30T07:04:25.818Z,99511.16
2023-07-30T07:05:58.437Z,99507.66
2023-07-30T07:07:32.248Z,99507.13
2023-07-30T07:09:04.840Z,99500.53
2023-07-30T07:10:37.122Z,99508.09
2023-07-30T07:12:10.527Z,99505.81
2023-07-30T07:13:42.763Z,99507.22
2023-07-30T07:15:15.463Z,99505.00
2023-07-30T07:16:47.848Z,99504.84
2023-07-30T07:18:20.175Z,99504.44
2023-07-30T07:19:52.494Z,99503.84
2023-07-30T07:21:25.110Z,99505.94
2023-07-30T07:22:57.326Z,99502.03
2023-07-30T07:24:29.616Z,99496.31
2023-07-30T07:26:01.948Z,99498.22
2023-07-30T07:27:34.274Z,99492.06
2023-07-30T07:29:06.599Z,99491.72
2023-07-30T07:30:39.025Z,99489.16
2023-07-30T07:32:11.889Z,99486.63
2023-07-30T07:33:46.477Z,99488.41
2023-07-30T07:35:21.856Z,99493.00
2023-07-30T07:36:53.992Z,99492.88
2023-07-30T07:38:26.228Z,99489.88
2023-07-30T07:39:58.544Z,99485.41
2023-07-30T07:41:30.760Z,99491.00
2023-07-30T07:43:03.016Z,99479.88
2023-07-30T07:44:35.138Z,99484.63
2023-07-30T07:46:11.819Z,99482.47
2023-07-30T07:47:44.491Z,99488.06
2023-07-30T07:49:16.794Z,99485.75
2023-07-30T07:50:49.058Z,99482.34
2023-07-30T07:52:22.268Z,99482.56
2023-07-30T07:53:54.573Z,99480.03
2023-07-30T07:55:26.785Z,99472.94
2023-07-30T07:56:59.036Z,99463.38
2023-07-30T07:58:32.236Z,99466.78
2023-07-30T08:00:06.751Z,99460.97
2023-07-30T08:01:39.588Z,99457.84
2023-07-30T08:03:12.120Z,99464.53
2023-07-30T08:04:44.522Z,99455.22
2023-07-30T08:06:16.864Z,99457.97
2023-07-30T08:07:49.475Z,99459.69
2023-07-30T08:09:21.788Z,99446.56
2023-07-30T08:10:54.550Z,99449.28
2023-07-30T08:12:26.888Z,99455.84
2023-07-30T08:13:59.156Z,99453.84
2023-07-30T08:15:31.793Z,99448.88
2023-07-30T08:17:04.447Z,99444.91
2023-07-30T08:18:36.742Z,99442.72
2023-07-30T08:20:09.385Z,99437.91
2023-07-30T08:21:41.877Z,99439.94
2023-07-30T08:23:14.115Z,99441.97
2023-07-30T08:24:46.585Z,99437.88
2023-07-30T08:26:18.925Z,99435.53
2023-07-30T08:27:51.298Z,99426.06
2023-07-30T08:29:23.515Z,99431.72
2023-07-30T08:31:01.730Z,99437.09
2023-07-30T08:32:35.351Z,99428.09
2023-07-30T08:34:08.986Z,99427.44
2023-07-30T08:35:41.305Z,99430.81
2023-07-30T08:37:13.849Z,99428.81
2023-07-30T08:38:46.315Z,99426.66
2023-07-30T08:40:18.860Z,99426.84
2023-07-30T08:41:51.700Z,99420.84
2023-07-30T08:43:24.470Z,99420.34
2023-07-30T08:44:57.187Z,99423.53
2023-07-30T08:46:29.741Z,99420.53
2023-07-30T08:48:02.318Z,99418.66
2023-07-30T08:49:34.664Z,99413.50
2023-07-30T08:51:07.147Z,99413.66
2023-07-30T08:52:39.415Z,99417.66
2023-07-30T08:54:14.063Z,99412.13
2023-07-30T08:55:46.952Z,99414.28
2023-07-30T08:57:20.993Z,99414.25
2023-07-30T08:58:55.651Z,99414.75
2023-07-30T09:00:32.637Z,99408.38
2023-07-30T09:02:06.277Z,99412.09
2023-07-30T09:03:42.126Z,99412.75
2023-07-30T09:05:14.741Z,99411.06
2023-07-30T09:06:53.485Z,99408.88
2023-07-30T09:08:26.543Z,99409.72
2023-07-30T09:09:58.871Z,99405.19
2023-07-30T09:11:31.392Z,99406.34
2023-07-30T09:13:04.555Z,99411.66
2023-07-30T09:14:36.852Z,99409.97
2023-07-30T09:16:16.685Z,99409.78
2023-07-30T09:17:49.127Z,99404.91
2023-07-30T09:19:21.506Z,99397.19
2023-07-30T09:20:54.081Z,99401.19
2023-07-30T09:22:28.575Z,99393.47
2023-07-30T09:24:07.308Z,99399.78
2023-07-30T09:25:40.330Z,99393.06
2023-07-30T09:27:12.921Z,99392.72
2023-07-30T09:28:45.300Z,99388.03
2023-07-30T09:30:23.817Z,99387.34
2023-07-30T09:31:56.976Z,99388.00
2023-07-30T09:33:29.199Z,99373.97
2023-07-30T09:35:12.392Z,99381.56
2023-07-30T09:36:45.974Z,99372.50
2023-07-30T09:38:20.739Z,99376.47
2023-07-30T09:39:53.078Z,99372.97
2023-07-30T09:41:25.550Z,99366.25
2023-07-30T09:42:59.006Z,99376.25
2023-07-30T09:44:34.615Z,99365.19
2023-07-30T09:46:08.537Z,99360.28
2023-07-30T09:47:40.924Z,99364.56
2023-07-30T09:49:13.329Z,99364.50
2023-07-30T09:50:46.500Z,99361.41
2023-07-30T09:52:19.081Z,99355.69
2023-07-30T09:53:51.844Z,99353.66
2023-07-30T09:55:24.392Z,99352.44
2023-07-30T09:56:56.555Z,99351.25
2023-07-30T09:58:29.022Z,99351.91
2023-07-30T10:00:03.026Z,99349.69
2023-07-30T10:01:49.277Z,99348.09
2023-07-30T10:03:21.939Z,99348.09
2023-07-30T10:04:55.533Z,99347.34
2023-07-30T10:06:31.541Z,99344.69
2023-07-30T10:08:10.337Z,99333.31
2023-07-30T10:09:47.487Z,99339.97
2023-07-30T10:11:21.443Z,99338.41
2023-07-30T10:12:55.219Z,99328.97
2023-07-30T10:14:28.045Z,99335.38
2023-07-30T10:16:00.805Z,99330.66
2023-07-30T10:17:34.881Z,99331.47
2023-07-30T10:19:07.725Z,99323.59
2023-07-30T10:20:41.026Z,99327.75
2023-07-30T10:22:13.378Z,99323.78
2023-07-30T10:24:03.362Z,99324.91
2023-07-30T10:25:50.754Z,99321.69
2023-07-30T10:27:27.863Z,99327.31
2023-07-30T10:29:18.823Z,99323.03
2023-07-30T10:30:58.036Z,99327.59
2023-07-30T10:32:40.406Z,99321.88
2023-07-30T10:34:12.852Z,99321.00
2023-07-30T10:35:47.874Z,99318.78
2023-07-30T10:37:20.830Z,99319.44
2023-07-30T10:38:53.419Z,99320.72
2023-07-30T10:40:25.646Z,99313.13
2023-07-30T10:42:02.689Z,99309.22
2023-07-30T10:43:38.674Z,99317.53
2023-07-30T10:45:11.341Z,99311.72
2023-07-30T10:46:43.967Z,99312.16
2023-07-30T10:48:16.860Z,99312.44
2023-07-30T10:49:50.217Z,99306.25
2023-07-30T10:51:22.798Z,99311.03
2023-07-30T10:52:55.273Z,99296.22
2023-07-30T10:54:27.926Z,99302.88
2023-07-30T10:56:03.990Z,99297.16
2023-07-30T10:57:36.397Z,99304.66
2023-07-30T10:59:09.934Z,99300.75
2023-07-30T11:00:42.556Z,99303.03
2023-07-30T11:02:16.997Z,99293.63
2023-07-30T11:03:53.340Z,99290.31
2023-07-30T11:05:27.098Z,99294.41
2023-07-30T11:06:59.476Z,99291.53
2023-07-30T11:08:44.766Z,99289.66
2023-07-30T11:10:17.336Z,99289.88
2023-07-30T11:11:52.484Z,99279.56
2023-07-30T11:13:26.213Z,99286.44
2023-07-30T11:15:03.342Z,99280.28
2023-07-30T11:16:37.026Z,99282.56
2023-07-30T11:18:09.922Z,99282.19
2023-07-30T11:19:47.083Z,99271.88
2023-07-30T11:21:20.304Z,99276.03
2023-07-30T11:22:52.804Z,99277.69
2023-07-30T11:24:35.871Z,99278.56
2023-07-30T11:26:09.467Z,99267.81
2023-07-30T11:27:51.988Z,99269.19
2023-07-30T11:29:24.256Z,99265.47
2023-07-30T11:31:00.264Z,99265.13
2023-07-30T11:32:33.398Z,99269.72
2023-07-30T11:34:06.091Z,99269.31
2023-07-30T11:35:38.565Z,99254.66
2023-07-30T11:37:11.220Z,99253.44
2023-07-30T11:38:43.858Z,99257.19
2023-07-30T11:40:16.409Z,99257.63
2023-07-30T11:41:49.223Z,99253.69
2023-07-30T11:43:24.722Z,99256.63
2023-07-30T11:44:57.206Z,99255.19
2023-07-30T11:46:32.137Z,99253.94
2023-07-30T11:48:12.977Z,99252.31
2023-07-30T11:49:57.140Z,99250.09
2023-07-30T11:51:30.976Z,99252.56
2023-07-30T11:53:03.704Z,99248.81
2023-07-30T11:54:36.118Z,99248.22
2023-07-30T11:56:09.869Z,99248.91
2023-07-30T11:57:42.273Z,99244.97
2023-07-30T11:59:15.145Z,99246.22
2023-07-30T12:00:47.779Z,99239.44
2023-07-30T12:02:22.120Z,99239.59
2023-07-30T12:04:02.090Z,99234.41
2023-07-30T12:05:36.480Z,99232.16
2023-07-30T12:07:12.350Z,99232.59
2023-07-30T12:08:44.726Z,99223.28
2023-07-30T12:10:19.493Z,99233.25
2023-07-30T12:11:58.569Z,99226.63
2023-07-30T12:13:31.221Z,99219.81
2023-07-30T12:15:03.835Z,99220.00
2023-07-30T12:16:36.282Z,99218.81
2023-07-30T12:18:08.975Z,99209.69
2023-07-30T12:19:42.285Z,99209.06
2023-07-30T12:21:14.712Z,99209.28
2023-07-30T12:22:47.072Z,99201.88
2023-07-30T12:24:19.467Z,99202.06
2023-07-30T12:25:52.676Z,99191.53
2023-07-30T12:27:25.035Z,99201.06
2023-07-30T12:28:57.366Z,99184.91
2023-07-30T12:30:29.794Z,99194.16
2023-07-30T12:32:04.759Z,99199.38
2023-07-30T12:33:37.686Z,99194.00
2023-07-30T12:35:10.076Z,99187.81
2023-07-30T12:36:42.472Z,99187.59
2023-07-30T12:38:15.037Z,99189.47
2023-07-30T12:39:47.474Z,99187.59
2023-07-30T12:41:21.643Z,99178.28
2023-07-30T12:42:54.614Z,99177.47
2023-07-30T12:44:27.245Z,99174.53
2023-07-30T12:45:59.624Z,99167.13
2023-07-30T12:47:33.439Z,99166.28
2023-07-30T12:49:06.297Z,99160.69
2023-07-30T12:50:39.084Z,99163.38
2023-07-30T12:52:11.388Z,99160.69
2023-07-30T12:53:43.874Z,99159.66
2023-07-30T12:55:16.421Z,99152.63
2023-07-30T12:56:49.000Z,99150.31
2023-07-30T12:58:21.308Z,99156.34
2023-07-30T12:59:53.603Z,99158.00
2023-07-30T13:01:26.174Z,99160.06
2023-07-30T13:02:58.879Z,99154.25
2023-07-30T13:04:31.716Z,99154.69
2023-07-30T13:06:04.201Z,99152.63
2023-07-30T13:07:36.633Z,99148.06
2023-07-30T13:09:09.110Z,99142.47
2023-07-30T13:10:41.594Z,99139.78
2023-07-30T13:12:14.014Z,99152.19
2023-07-30T13:13:46.597Z,99143.09
2023-07-30T13:15:19.124Z,99132.53
2023-07-30T13:16:51.757Z,99135.84
2023-07-30T13:18:24.432Z,99127.78
2023-07-30T13:19:59.825Z,99123.22
2023-07-30T13:21:32.239Z,99126.53
2023-07-30T13:23:04.641Z,99130.03
2023-07-30T13:24:38.034Z,99124.22
2023-07-30T13:26:10.511Z,99125.25
2023-07-30T13:27:42.877Z,99128.97
2023-07-30T13:29:15.386Z,99124.41
2023-07-30T13:30:48.029Z,99124.59
2023-07-30T13:32:20.657Z,99124.81
2023-07-30T13:33:53.563Z,99119.22
2023-07-30T13:35:25.620Z,99117.81
2023-07-30T13:36:58.306Z,99114.91
2023-07-30T13:38:30.948Z,99116.16
2023-07-30T13:40:03.878Z,99112.44
2023-07-30T13:41:41.635Z,99111.63
2023-07-30T13:43:14.684Z,99108.75
2023-07-30T13:44:47.152Z,99102.50
2023-07-30T13:46:19.660Z,99106.03
2023-07-30T13:47:52.884Z,99106.63
2023-07-30T13:49:25.633Z,99107.69
2023-07-30T13:50:59.225Z,99101.50
2023-07-30T13:52:31.869Z,99106.25
2023-07-30T13:54:05.057Z,99101.50
2023-07-30T13:55:37.536Z,99108.31
2023-07-30T13:57:10.860Z,99097.75
2023-07-30T13:58:43.425Z,99101.25
2023-07-30T14:00:16.701Z,99095.88
2023-07-30T14:01:49.279Z,99091.13
2023-07-30T14:03:21.601Z,99090.09
2023-07-30T14:04:53.843Z,99089.47
2023-07-30T14:06:26.417Z,99080.97
2023-07-30T14:07:58.884Z,99079.13
2023-07-30T14:09:34.803Z,99085.53
2023-07-30T14:11:07.330Z,99074.59
2023-07-30T14:12:39.879Z,99074.34
2023-07-30T14:14:12.480Z,99081.34
2023-07-30T14:15:44.716Z,99076.59
2023-07-30T14:17:17.234Z,99077.63
2023-07-30T14:18:49.709Z,99071.22
2023-07-30T14:20:22.577Z,99073.09
2023-07-30T14:21:54.911Z,99067.28
2023-07-30T14:23:28.113Z,99065.22
2023-07-30T14:25:00.605Z,99068.72
2023-07-30T14:26:33.055Z,99061.72
2023-07-30T14:28:06.350Z,99068.34
2023-07-30T14:29:38.607Z,99060.47
2023-07-30T14:31:11.208Z,99058.59
2023-07-30T14:32:43.621Z,99058.59
2023-07-30T14:34:15.908Z,99049.69
2023-07-30T14:35:48.396Z,99057.16
2023-07-30T14:37:20.946Z,99058.41
2023-07-30T14:38:53.470Z,99048.25
2023-07-30T14:40:25.951Z,99054.06
2023-07-30T14:41:58.363Z,99051.16
2023-07-30T14:43:31.014Z,99052.78
2023-07-30T14:45:03.743Z,99045.34
2023-07-30T14:46:36.340Z,99044.94
2023-07-30T14:48:08.919Z,99051.97
2023-07-30T14:49:41.871Z,99041.63
2023-07-30T14:51:14.415Z,99045.97
2023-07-30T14:52:47.420Z,99030.88
2023-07-30T14:54:19.913Z,99039.13
2023-07-30T14:55:52.228Z,99033.56
2023-07-30T14:57:24.982Z,99035.63
2023-07-30T14:58:57.281Z,99038.75
2023-07-30T15:00:29.554Z,99039.56
2023-07-30T15:02:02.200Z,99035.19
2023-07-30T15:03:34.458Z,99037.06
2023-07-30T15:05:07.558Z,99032.13
2023-07-30T15:06:40.266Z,99034.59
2023-07-30T15:08:13.080Z,99030.88
2023-07-30T15:09:47.477Z,99025.28
2023-07-30T15:11:19.831Z,99030.88
2023-07-30T15:12:52.279Z,99022.38
2023-07-30T15:14:24.666Z,99020.50
2023-07-30T15:15:57.085Z,99023.63
2023-07-30T15:17:29.440Z,99020.50
2023-07-30T15:19:02.075Z,99019.28
2023-07-30T15:20:34.508Z,99016.78
2023-07-30T15:22:07.187Z,99019.47
2023-07-30T15:23:39.619Z,99015.97
2023-07-30T15:25:12.024Z,99019.28
2023-07-30T15:26:44.522Z,99022.78
2023-07-30T15:28:16.957Z,99020.50
2023-07-30T15:29:49.462Z,99022.31
2023-07-30T15:31:21.828Z,99024.38
2023-07-30T15:32:54.250Z,99023.97
2023-07-30T15:34:26.717Z,99021.06
2023-07-30T15:35:59.237Z,99018.16
2023-07-30T15:37:31.531Z,99017.94
2023-07-30T15:39:04.347Z,99014.19
2023-07-30T15:40:39.904Z,99012.56
2023-07-30T15:42:12.624Z,99009.63
2023-07-30T15:43:45.271Z,99008.78
2023-07-30T15:45:19.163Z,99003.94
2023-07-30T15:46:52.095Z,99008.69
2023-07-30T15:48:24.722Z,99011.19
2023-07-30T15:49:59.826Z,98995.88
2023-07-30T15:51:32.576Z,99006.59
2023-07-30T15:53:05.284Z,98999.34
2023-07-30T15:54:38.952Z,98998.31
2023-07-30T15:56:11.407Z,99000.94
2023-07-30T15:57:44.213Z,98998.22
2023-07-30T15:59:16.253Z,98996.81
2023-07-30T16:00:49.166Z,98991.22
2023-07-30T16:02:21.702Z,98997.41
2023-07-30T16:03:54.127Z,98995.09
2023-07-30T16:05:26.438Z,98984.94
2023-07-30T16:07:01.855Z,98981.41
2023-07-30T16:08:37.825Z,98985.97
2023-07-30T16:10:10.623Z,98983.47
2023-07-30T16:11:43.028Z,98987.56
2023-07-30T16:13:15.458Z,98982.81
2023-07-30T16:14:47.776Z,98982.75
2023-07-30T16:16:20.067Z,98975.09
2023-07-30T16:17:52.363Z,98976.31
2023-07-30T16:19:24.668Z,98979.38
2023-07-30T16:21:06.640Z,98978.56
2023-07-30T16:22:38.996Z,98980.59
2023-07-30T16:24:11.633Z,98978.69
2023-07-30T16:25:44.071Z,98977.59
2023-07-30T16:27:19.563Z,98980.88
2023-07-30T16:28:52.040Z,98981.22
2023-07-30T16:30:26.798Z,98977.91
2023-07-30T16:32:00.817Z,98972.75
2023-07-30T16:33:32.809Z,98981.22
2023-07-30T16:35:05.309Z,98976.03
2023-07-30T16:36:37.932Z,98970.22
2023-07-30T16:38:11.267Z,98980.50
2023-07-30T16:39:43.541Z,98981.91
2023-07-30T16:41:15.972Z,98983.13
2023-07-30T16:42:49.459Z,98986.44
2023-07-30T16:44:24.307Z,98988.72
2023-07-30T16:46:01.475Z,98986.28
2023-07-30T16:47:34.255Z,98984.56
2023-07-30T16:49:06.547Z,98983.50
2023-07-30T16:50:39.731Z,98985.28
2023-07-30T16:52:11.971Z,98991.81
2023-07-30T16:53:44.236Z,98986.94
2023-07-30T16:55:16.655Z,99001.66
2023-07-30T16:56:49.114Z,98997.00
2023-07-30T16:58:21.470Z,98996.47
2023-07-30T16:59:53.677Z,98990.41
2023-07-30T17:01:26.450Z,98995.03
2023-07-30T17:02:58.794Z,98992.78
2023-07-30T17:04:31.338Z,98997.97
2023-07-30T17:06:03.927Z,98997.59
2023-07-30T17:07:36.154Z,98993.91
2023-07-30T17:09:08.644Z,98997.03
2023-07-30T17:10:41.843Z,98995.81
2023-07-30T17:12:14.029Z,98994.97
2023-07-30T17:13:46.354Z,98987.25
2023-07-30T17:15:18.661Z,98992.38
2023-07-30T17:16:51.095Z,98997.28
2023-07-30T17:18:23.310Z,98999.53
2023-07-30T17:19:57.199Z,98996.47
2023-07-30T17:21:30.817Z,98993.53
2023-07-30T17:23:03.184Z,98998.59
2023-07-30T17:24:35.758Z,98995.66
2023-07-30T17:26:08.482Z,98998.03
2023-07-30T17:27:40.813Z,99001.44
2023-07-30T17:29:13.145Z,99011.84
2023-07-30T17:30:45.454Z,99017.47
2023-07-30T17:32:18.128Z,99018.69
2023-07-30T17:33:50.670Z,99021.34
2023-07-30T17:35:23.011Z,99017.06
2023-07-30T17:36:55.298Z,99012.22
2023-07-30T17:38:28.655Z,99015.72
2023-07-30T17:41:32.311Z,99008.38
2023-07-30T17:43:05.807Z,99010.88
2023-07-30T17:44:38.344Z,99018.72
2023-07-30T17:46:10.695Z,99015.69
2023-07-30T17:47:43.026Z,99021.53
2023-07-30T17:49:15.303Z,99014.03
2023-07-30T17:50:48.833Z,99014.84
2023-07-30T17:52:21.319Z,99010.34
2023-07-30T17:53:54.222Z,99003.19
2023-07-30T17:55:27.092Z,99016.97
2023-07-30T17:56:59.569Z,99004.47
2023-07-30T17:58:31.745Z,99008.75
2023-07-30T18:00:05.289Z,99003.25
2023-07-30T18:01:40.159Z,99001.38
2023-07-30T18:03:13.594Z,99012.53
2023-07-30T18:04:46.380Z,99009.00
2023-07-30T18:06:18.777Z,99010.66
2023-07-30T18:07:53.009Z,99019.44
2023-07-30T18:09:25.652Z,99015.06
2023-07-30T18:10:59.352Z,99013.84
2023-07-30T18:12:31.727Z,99008.63
2023-07-30T18:14:04.017Z,99013.75
2023-07-30T18:15:36.446Z,99015.34
2023-07-30T18:17:08.712Z,99009.34
2023-07-30T18:18:40.961Z,99019.59
2023-07-30T18:20:13.278Z,99019.38
2023-07-30T18:21:45.577Z,99018.16
2023-07-30T18:23:17.925Z,99016.81
2023-07-30T18:24:50.154Z,99014.75
2023-07-30T18:26:22.385Z,99024.47
2023-07-30T18:27:54.700Z,99024.53
2023-07-30T18:29:26.968Z,99032.91